sensor_id;sensor_type;location;lat;lon;timestamp;P1;durP1;ratioP1;P2;durP2;ratioP2
45792;SDS011;31495;42.740;22.908;2022-10-16T00:01:04;14.77;;;5.78;;
45792;SDS011;31495;42.740;22.908;2022-10-16T00:02:05;13.02;;;6.90;;
45792;SDS011;31495;42.740;22.908;2022-10-16T00:03:04;14.10;;;5.20;;
45792;SDS011;31495;42.740;22.908;2022-10-16T00:04:05;13.02;;;6.28;;
45792;SDS011;31495;42.740;22.908;2022-10-16T00:05:04;12.35;;;5.53;;
45792;SDS011;31495;42.740;22.908;2022-10-16T00:06:04;9.68;;;5.07;;
45792;SDS011;31495;42.740;22.908;2022-10-16T00:07:05;7.78;;;4.35;;
45792;SDS011;31495;42.740;22.908;2022-10-16T00:08:04;8.52;;;4.45;;
45792;SDS011;31495;42.740;22.908;2022-10-16T00:09:05;9.93;;;4.53;;
45792;SDS011;31495;42.740;22.908;2022-10-16T00:10:06;7.43;;;4.38;;
45792;SDS011;31495;42.740;22.908;2022-10-16T00:11:07;8.80;;;4.82;;
45792;SDS011;31495;42.740;22.908;2022-10-16T00:12:08;10.10;;;4.22;;
45792;SDS011;31495;42.740;22.908;2022-10-16T00:13:08;8.20;;;4.70;;
45792;SDS011;31495;42.740;22.908;2022-10-16T00:14:09;8.55;;;4.70;;
45792;SDS011;31495;42.740;22.908;2022-10-16T00:15:10;8.10;;;4.38;;
45792;SDS011;31495;42.740;22.908;2022-10-16T00:16:09;9.00;;;4.97;;
45792;SDS011;31495;42.740;22.908;2022-10-16T00:17:10;6.53;;;3.45;;
45792;SDS011;31495;42.740;22.908;2022-10-16T00:18:09;7.40;;;4.13;;
45792;SDS011;31495;42.740;22.908;2022-10-16T00:19:09;6.88;;;4.15;;
45792;SDS011;31495;42.740;22.908;2022-10-16T00:20:10;10.07;;;4.72;;
45792;SDS011;31495;42.740;22.908;2022-10-16T00:21:11;11.82;;;4.78;;
45792;SDS011;31495;42.740;22.908;2022-10-16T00:22:12;7.75;;;4.55;;
45792;SDS011;31495;42.740;22.908;2022-10-16T00:23:11;8.05;;;4.13;;
45792;SDS011;31495;42.740;22.908;2022-10-16T00:24:11;9.55;;;4.35;;
45792;SDS011;31495;42.740;22.908;2022-10-16T00:25:11;12.65;;;5.65;;
45792;SDS011;31495;42.740;22.908;2022-10-16T00:26:12;10.38;;;4.85;;
45792;SDS011;31495;42.740;22.908;2022-10-16T00:27:13;9.93;;;5.43;;
45792;SDS011;31495;42.740;22.908;2022-10-16T00:28:12;10.15;;;4.55;;
45792;SDS011;31495;42.740;22.908;2022-10-16T00:29:12;13.95;;;5.32;;
45792;SDS011;31495;42.740;22.908;2022-10-16T00:30:11;10.02;;;4.20;;
45792;SDS011;31495;42.740;22.908;2022-10-16T00:31:11;14.68;;;5.32;;
45792;SDS011;31495;42.740;22.908;2022-10-16T00:32:12;8.38;;;4.80;;
45792;SDS011;31495;42.740;22.908;2022-10-16T00:33:11;13.63;;;5.03;;
45792;SDS011;31495;42.740;22.908;2022-10-16T00:34:10;11.70;;;5.10;;
45792;SDS011;31495;42.740;22.908;2022-10-16T00:35:10;9.75;;;5.20;;
45792;SDS011;31495;42.740;22.908;2022-10-16T00:36:11;9.63;;;4.72;;
45792;SDS011;31495;42.740;22.908;2022-10-16T00:37:12;11.20;;;5.43;;
45792;SDS011;31495;42.740;22.908;2022-10-16T00:38:12;10.48;;;5.65;;
45792;SDS011;31495;42.740;22.908;2022-10-16T00:39:11;10.95;;;5.38;;
45792;SDS011;31495;42.740;22.908;2022-10-16T00:40:11;9.13;;;4.72;;
45792;SDS011;31495;42.740;22.908;2022-10-16T00:41:11;11.65;;;5.05;;
45792;SDS011;31495;42.740;22.908;2022-10-16T00:42:17;11.40;;;4.43;;
45792;SDS011;31495;42.740;22.908;2022-10-16T00:44:42;7.93;;;4.65;;
45792;SDS011;31495;42.740;22.908;2022-10-16T00:45:53;10.10;;;4.00;;
45792;SDS011;31495;42.740;22.908;2022-10-16T00:46:52;9.52;;;4.63;;
45792;SDS011;31495;42.740;22.908;2022-10-16T00:47:53;9.60;;;4.55;;
45792;SDS011;31495;42.740;22.908;2022-10-16T00:50:00;10.45;;;5.00;;
45792;SDS011;31495;42.740;22.908;2022-10-16T00:51:07;9.13;;;4.13;;
45792;SDS011;31495;42.740;22.908;2022-10-16T00:52:07;14.13;;;5.32;;
45792;SDS011;31495;42.740;22.908;2022-10-16T00:53:07;7.57;;;4.32;;
45792;SDS011;31495;42.740;22.908;2022-10-16T00:54:08;10.05;;;4.90;;
45792;SDS011;31495;42.740;22.908;2022-10-16T00:55:11;7.95;;;4.13;;
45792;SDS011;31495;42.740;22.908;2022-10-16T00:56:11;6.25;;;3.70;;
45792;SDS011;31495;42.740;22.908;2022-10-16T00:57:11;8.02;;;4.45;;
45792;SDS011;31495;42.740;22.908;2022-10-16T00:58:11;9.35;;;4.43;;
45792;SDS011;31495;42.740;22.908;2022-10-16T00:59:15;8.60;;;4.38;;
45792;SDS011;31495;42.740;22.908;2022-10-16T01:00:19;8.20;;;4.30;;
45792;SDS011;31495;42.740;22.908;2022-10-16T01:01:21;8.43;;;3.75;;
45792;SDS011;31495;42.740;22.908;2022-10-16T01:02:21;10.75;;;4.05;;
45792;SDS011;31495;42.740;22.908;2022-10-16T01:03:24;10.10;;;4.43;;
45792;SDS011;31495;42.740;22.908;2022-10-16T01:04:25;7.57;;;3.58;;
45792;SDS011;31495;42.740;22.908;2022-10-16T01:05:30;6.68;;;3.85;;
45792;SDS011;31495;42.740;22.908;2022-10-16T01:07:13;7.30;;;3.00;;
45792;SDS011;31495;42.740;22.908;2022-10-16T01:09:21;7.57;;;3.60;;
45792;SDS011;31495;42.740;22.908;2022-10-16T01:10:38;7.05;;;3.35;;
45792;SDS011;31495;42.740;22.908;2022-10-16T01:11:52;7.32;;;3.55;;
45792;SDS011;31495;42.740;22.908;2022-10-16T01:13:03;8.40;;;4.25;;
45792;SDS011;31495;42.740;22.908;2022-10-16T01:14:08;7.40;;;3.72;;
45792;SDS011;31495;42.740;22.908;2022-10-16T01:16:26;5.10;;;3.00;;
45792;SDS011;31495;42.740;22.908;2022-10-16T01:17:36;7.25;;;3.20;;
45792;SDS011;31495;42.740;22.908;2022-10-16T01:18:57;6.15;;;3.47;;
45792;SDS011;31495;42.740;22.908;2022-10-16T01:20:10;5.85;;;3.30;;
45792;SDS011;31495;42.740;22.908;2022-10-16T01:21:15;7.78;;;4.07;;
45792;SDS011;31495;42.740;22.908;2022-10-16T01:22:20;7.55;;;3.47;;
45792;SDS011;31495;42.740;22.908;2022-10-16T01:23:36;9.25;;;3.97;;
45792;SDS011;31495;42.740;22.908;2022-10-16T01:24:52;7.82;;;3.83;;
45792;SDS011;31495;42.740;22.908;2022-10-16T01:27:39;5.85;;;3.70;;
45792;SDS011;31495;42.740;22.908;2022-10-16T01:28:34;7.35;;;2.70;;
45792;SDS011;31495;42.740;22.908;2022-10-16T01:30:53;5.63;;;3.45;;
45792;SDS011;31495;42.740;22.908;2022-10-16T01:31:59;5.55;;;3.17;;
45792;SDS011;31495;42.740;22.908;2022-10-16T01:33:08;9.20;;;3.33;;
45792;SDS011;31495;42.740;22.908;2022-10-16T01:34:17;6.63;;;3.78;;
45792;SDS011;31495;42.740;22.908;2022-10-16T01:35:38;7.25;;;3.38;;
45792;SDS011;31495;42.740;22.908;2022-10-16T01:36:45;7.13;;;3.78;;
45792;SDS011;31495;42.740;22.908;2022-10-16T01:37:51;6.13;;;3.55;;
45792;SDS011;31495;42.740;22.908;2022-10-16T01:38:55;6.43;;;3.90;;
45792;SDS011;31495;42.740;22.908;2022-10-16T01:40:00;7.65;;;3.83;;
45792;SDS011;31495;42.740;22.908;2022-10-16T01:41:06;6.57;;;3.60;;
45792;SDS011;31495;42.740;22.908;2022-10-16T01:42:12;7.68;;;3.55;;
45792;SDS011;31495;42.740;22.908;2022-10-16T01:43:20;7.35;;;3.17;;
45792;SDS011;31495;42.740;22.908;2022-10-16T01:44:26;4.88;;;2.80;;
45792;SDS011;31495;42.740;22.908;2022-10-16T01:45:30;5.03;;;2.83;;
45792;SDS011;31495;42.740;22.908;2022-10-16T01:46:32;8.00;;;3.42;;
45792;SDS011;31495;42.740;22.908;2022-10-16T01:47:33;7.05;;;3.85;;
45792;SDS011;31495;42.740;22.908;2022-10-16T01:48:35;5.38;;;3.15;;
45792;SDS011;31495;42.740;22.908;2022-10-16T01:49:36;5.70;;;3.65;;
45792;SDS011;31495;42.740;22.908;2022-10-16T01:50:38;6.53;;;3.47;;
45792;SDS011;31495;42.740;22.908;2022-10-16T01:51:41;7.63;;;3.78;;
45792;SDS011;31495;42.740;22.908;2022-10-16T01:53:48;8.00;;;3.15;;
45792;SDS011;31495;42.740;22.908;2022-10-16T01:54:52;6.15;;;3.10;;
45792;SDS011;31495;42.740;22.908;2022-10-16T01:55:54;8.05;;;3.50;;
45792;SDS011;31495;42.740;22.908;2022-10-16T01:56:57;6.75;;;3.50;;
45792;SDS011;31495;42.740;22.908;2022-10-16T01:57:58;9.93;;;3.30;;
45792;SDS011;31495;42.740;22.908;2022-10-16T01:59:01;5.47;;;3.42;;
45792;SDS011;31495;42.740;22.908;2022-10-16T02:00:10;7.68;;;3.78;;
45792;SDS011;31495;42.740;22.908;2022-10-16T02:01:13;9.18;;;3.67;;
45792;SDS011;31495;42.740;22.908;2022-10-16T02:02:17;8.13;;;3.20;;
45792;SDS011;31495;42.740;22.908;2022-10-16T02:03:19;5.95;;;3.60;;
45792;SDS011;31495;42.740;22.908;2022-10-16T02:04:24;5.47;;;3.45;;
45792;SDS011;31495;42.740;22.908;2022-10-16T02:05:53;5.57;;;3.25;;
45792;SDS011;31495;42.740;22.908;2022-10-16T02:06:54;7.38;;;3.30;;
45792;SDS011;31495;42.740;22.908;2022-10-16T02:07:54;6.78;;;3.38;;
45792;SDS011;31495;42.740;22.908;2022-10-16T02:08:54;6.90;;;4.03;;
45792;SDS011;31495;42.740;22.908;2022-10-16T02:09:54;8.07;;;3.90;;
45792;SDS011;31495;42.740;22.908;2022-10-16T02:10:57;5.90;;;3.65;;
45792;SDS011;31495;42.740;22.908;2022-10-16T02:11:59;7.70;;;4.00;;
45792;SDS011;31495;42.740;22.908;2022-10-16T02:14:15;6.55;;;4.07;;
45792;SDS011;31495;42.740;22.908;2022-10-16T02:15:15;8.50;;;4.55;;
45792;SDS011;31495;42.740;22.908;2022-10-16T02:16:14;10.18;;;3.83;;
45792;SDS011;31495;42.740;22.908;2022-10-16T02:17:15;5.80;;;3.65;;
45792;SDS011;31495;42.740;22.908;2022-10-16T02:18:16;10.98;;;5.07;;
45792;SDS011;31495;42.740;22.908;2022-10-16T02:19:16;7.85;;;4.15;;
45792;SDS011;31495;42.740;22.908;2022-10-16T02:20:22;5.65;;;3.95;;
45792;SDS011;31495;42.740;22.908;2022-10-16T02:21:28;6.78;;;3.92;;
45792;SDS011;31495;42.740;22.908;2022-10-16T02:22:36;8.02;;;4.47;;
45792;SDS011;31495;42.740;22.908;2022-10-16T02:23:49;8.35;;;4.40;;
45792;SDS011;31495;42.740;22.908;2022-10-16T02:24:54;7.25;;;4.10;;
45792;SDS011;31495;42.740;22.908;2022-10-16T02:25:58;8.20;;;4.68;;
45792;SDS011;31495;42.740;22.908;2022-10-16T02:27:04;9.68;;;3.83;;
45792;SDS011;31495;42.740;22.908;2022-10-16T02:28:19;6.35;;;3.55;;
45792;SDS011;31495;42.740;22.908;2022-10-16T02:29:24;7.90;;;4.40;;
45792;SDS011;31495;42.740;22.908;2022-10-16T02:30:30;9.70;;;4.05;;
45792;SDS011;31495;42.740;22.908;2022-10-16T02:31:35;7.25;;;4.10;;
45792;SDS011;31495;42.740;22.908;2022-10-16T02:32:38;8.73;;;4.35;;
45792;SDS011;31495;42.740;22.908;2022-10-16T02:33:40;7.25;;;4.40;;
45792;SDS011;31495;42.740;22.908;2022-10-16T02:34:43;8.02;;;4.43;;
45792;SDS011;31495;42.740;22.908;2022-10-16T02:35:44;13.38;;;6.30;;
45792;SDS011;31495;42.740;22.908;2022-10-16T02:36:47;12.48;;;5.60;;
45792;SDS011;31495;42.740;22.908;2022-10-16T02:37:48;13.18;;;5.10;;
45792;SDS011;31495;42.740;22.908;2022-10-16T02:38:49;11.23;;;5.57;;
45792;SDS011;31495;42.740;22.908;2022-10-16T02:39:49;11.70;;;6.22;;
45792;SDS011;31495;42.740;22.908;2022-10-16T02:40:50;12.60;;;6.10;;
45792;SDS011;31495;42.740;22.908;2022-10-16T02:41:50;13.60;;;6.30;;
45792;SDS011;31495;42.740;22.908;2022-10-16T02:42:50;10.60;;;5.65;;
45792;SDS011;31495;42.740;22.908;2022-10-16T02:43:51;12.38;;;5.78;;
45792;SDS011;31495;42.740;22.908;2022-10-16T02:44:50;12.43;;;5.30;;
45792;SDS011;31495;42.740;22.908;2022-10-16T02:45:50;11.32;;;5.55;;
45792;SDS011;31495;42.740;22.908;2022-10-16T02:46:50;10.88;;;4.78;;
45792;SDS011;31495;42.740;22.908;2022-10-16T02:47:49;11.43;;;5.25;;
45792;SDS011;31495;42.740;22.908;2022-10-16T02:48:49;10.43;;;5.18;;
45792;SDS011;31495;42.740;22.908;2022-10-16T02:49:48;8.23;;;5.20;;
45792;SDS011;31495;42.740;22.908;2022-10-16T02:50:48;9.77;;;5.07;;
45792;SDS011;31495;42.740;22.908;2022-10-16T02:51:47;10.63;;;5.30;;
45792;SDS011;31495;42.740;22.908;2022-10-16T02:52:46;9.57;;;4.95;;
45792;SDS011;31495;42.740;22.908;2022-10-16T02:53:46;15.15;;;5.13;;
45792;SDS011;31495;42.740;22.908;2022-10-16T02:54:45;10.77;;;5.13;;
45792;SDS011;31495;42.740;22.908;2022-10-16T02:55:45;9.48;;;4.72;;
45792;SDS011;31495;42.740;22.908;2022-10-16T02:56:44;7.95;;;4.72;;
45792;SDS011;31495;42.740;22.908;2022-10-16T02:57:44;9.60;;;4.85;;
45792;SDS011;31495;42.740;22.908;2022-10-16T02:58:43;8.10;;;4.57;;
45792;SDS011;31495;42.740;22.908;2022-10-16T02:59:43;8.70;;;4.97;;
45792;SDS011;31495;42.740;22.908;2022-10-16T03:00:43;11.15;;;4.70;;
45792;SDS011;31495;42.740;22.908;2022-10-16T03:01:43;16.05;;;5.50;;
45792;SDS011;31495;42.740;22.908;2022-10-16T03:02:43;8.07;;;4.30;;
45792;SDS011;31495;42.740;22.908;2022-10-16T03:03:43;8.77;;;4.60;;
45792;SDS011;31495;42.740;22.908;2022-10-16T03:04:42;9.80;;;5.18;;
45792;SDS011;31495;42.740;22.908;2022-10-16T03:05:42;10.50;;;5.32;;
45792;SDS011;31495;42.740;22.908;2022-10-16T03:06:44;10.32;;;4.78;;
45792;SDS011;31495;42.740;22.908;2022-10-16T03:07:44;7.32;;;4.78;;
45792;SDS011;31495;42.740;22.908;2022-10-16T03:08:43;11.38;;;4.65;;
45792;SDS011;31495;42.740;22.908;2022-10-16T03:09:43;8.00;;;4.55;;
45792;SDS011;31495;42.740;22.908;2022-10-16T03:10:42;6.72;;;3.83;;
45792;SDS011;31495;42.740;22.908;2022-10-16T03:11:41;8.25;;;4.43;;
45792;SDS011;31495;42.740;22.908;2022-10-16T03:12:41;7.97;;;4.57;;
45792;SDS011;31495;42.740;22.908;2022-10-16T03:13:41;9.55;;;4.75;;
45792;SDS011;31495;42.740;22.908;2022-10-16T03:14:40;9.75;;;4.50;;
45792;SDS011;31495;42.740;22.908;2022-10-16T03:15:39;9.50;;;4.45;;
45792;SDS011;31495;42.740;22.908;2022-10-16T03:16:39;8.75;;;4.20;;
45792;SDS011;31495;42.740;22.908;2022-10-16T03:17:38;20.70;;;5.28;;
45792;SDS011;31495;42.740;22.908;2022-10-16T03:18:38;10.18;;;4.85;;
45792;SDS011;31495;42.740;22.908;2022-10-16T03:19:37;7.00;;;4.35;;
45792;SDS011;31495;42.740;22.908;2022-10-16T03:20:37;8.35;;;3.60;;
45792;SDS011;31495;42.740;22.908;2022-10-16T03:21:36;9.45;;;4.55;;
45792;SDS011;31495;42.740;22.908;2022-10-16T03:22:36;8.15;;;4.53;;
45792;SDS011;31495;42.740;22.908;2022-10-16T03:23:35;7.95;;;4.60;;
45792;SDS011;31495;42.740;22.908;2022-10-16T03:24:35;7.03;;;2.92;;
45792;SDS011;31495;42.740;22.908;2022-10-16T03:25:34;5.65;;;3.42;;
45792;SDS011;31495;42.740;22.908;2022-10-16T03:26:34;7.90;;;4.00;;
45792;SDS011;31495;42.740;22.908;2022-10-16T03:27:33;6.70;;;3.13;;
45792;SDS011;31495;42.740;22.908;2022-10-16T03:28:32;8.93;;;4.50;;
45792;SDS011;31495;42.740;22.908;2022-10-16T03:29:32;8.57;;;4.35;;
45792;SDS011;31495;42.740;22.908;2022-10-16T03:30:32;6.03;;;3.90;;
45792;SDS011;31495;42.740;22.908;2022-10-16T03:31:32;6.40;;;3.35;;
45792;SDS011;31495;42.740;22.908;2022-10-16T03:32:32;8.05;;;3.95;;
45792;SDS011;31495;42.740;22.908;2022-10-16T03:33:31;6.50;;;3.53;;
45792;SDS011;31495;42.740;22.908;2022-10-16T03:34:31;6.40;;;3.13;;
45792;SDS011;31495;42.740;22.908;2022-10-16T03:35:31;5.63;;;3.10;;
45792;SDS011;31495;42.740;22.908;2022-10-16T03:36:32;9.32;;;4.75;;
45792;SDS011;31495;42.740;22.908;2022-10-16T03:37:31;8.82;;;4.35;;
45792;SDS011;31495;42.740;22.908;2022-10-16T03:38:31;6.93;;;3.47;;
45792;SDS011;31495;42.740;22.908;2022-10-16T03:39:31;7.72;;;3.83;;
45792;SDS011;31495;42.740;22.908;2022-10-16T03:40:31;5.50;;;3.13;;
45792;SDS011;31495;42.740;22.908;2022-10-16T03:41:33;7.60;;;4.00;;
45792;SDS011;31495;42.740;22.908;2022-10-16T03:42:32;6.60;;;3.65;;
45792;SDS011;31495;42.740;22.908;2022-10-16T03:43:32;7.18;;;3.70;;
45792;SDS011;31495;42.740;22.908;2022-10-16T03:44:31;7.32;;;3.75;;
45792;SDS011;31495;42.740;22.908;2022-10-16T03:45:31;7.20;;;3.58;;
45792;SDS011;31495;42.740;22.908;2022-10-16T03:46:30;10.88;;;4.07;;
45792;SDS011;31495;42.740;22.908;2022-10-16T03:47:30;4.35;;;2.88;;
45792;SDS011;31495;42.740;22.908;2022-10-16T03:48:32;6.07;;;3.63;;
45792;SDS011;31495;42.740;22.908;2022-10-16T03:49:31;6.72;;;3.65;;
45792;SDS011;31495;42.740;22.908;2022-10-16T03:50:30;7.63;;;4.10;;
45792;SDS011;31495;42.740;22.908;2022-10-16T03:51:30;8.85;;;4.10;;
45792;SDS011;31495;42.740;22.908;2022-10-16T03:52:30;6.80;;;4.15;;
45792;SDS011;31495;42.740;22.908;2022-10-16T03:53:31;10.45;;;4.20;;
45792;SDS011;31495;42.740;22.908;2022-10-16T03:54:30;9.15;;;3.92;;
45792;SDS011;31495;42.740;22.908;2022-10-16T03:55:29;6.45;;;3.88;;
45792;SDS011;31495;42.740;22.908;2022-10-16T03:56:29;8.02;;;4.55;;
45792;SDS011;31495;42.740;22.908;2022-10-16T03:57:28;6.65;;;3.97;;
45792;SDS011;31495;42.740;22.908;2022-10-16T03:58:28;9.27;;;4.05;;
45792;SDS011;31495;42.740;22.908;2022-10-16T03:59:28;7.00;;;3.97;;
45792;SDS011;31495;42.740;22.908;2022-10-16T04:00:27;7.15;;;3.08;;
45792;SDS011;31495;42.740;22.908;2022-10-16T04:01:26;7.22;;;3.45;;
45792;SDS011;31495;42.740;22.908;2022-10-16T04:02:26;7.55;;;3.85;;
45792;SDS011;31495;42.740;22.908;2022-10-16T04:03:25;8.68;;;3.63;;
45792;SDS011;31495;42.740;22.908;2022-10-16T04:04:25;10.43;;;4.75;;
45792;SDS011;31495;42.740;22.908;2022-10-16T04:05:24;6.07;;;3.72;;
45792;SDS011;31495;42.740;22.908;2022-10-16T04:06:24;8.32;;;3.90;;
45792;SDS011;31495;42.740;22.908;2022-10-16T04:07:23;10.38;;;4.00;;
45792;SDS011;31495;42.740;22.908;2022-10-16T04:08:22;7.53;;;3.72;;
45792;SDS011;31495;42.740;22.908;2022-10-16T04:09:22;8.02;;;3.97;;
45792;SDS011;31495;42.740;22.908;2022-10-16T04:10:21;6.22;;;3.10;;
45792;SDS011;31495;42.740;22.908;2022-10-16T04:11:21;5.78;;;3.70;;
45792;SDS011;31495;42.740;22.908;2022-10-16T04:12:21;7.28;;;4.05;;
45792;SDS011;31495;42.740;22.908;2022-10-16T04:13:21;13.43;;;4.88;;
45792;SDS011;31495;42.740;22.908;2022-10-16T04:14:21;8.52;;;5.07;;
45792;SDS011;31495;42.740;22.908;2022-10-16T04:15:20;9.60;;;4.75;;
45792;SDS011;31495;42.740;22.908;2022-10-16T04:16:19;12.00;;;4.57;;
45792;SDS011;31495;42.740;22.908;2022-10-16T04:17:19;7.88;;;4.43;;
45792;SDS011;31495;42.740;22.908;2022-10-16T04:18:18;8.77;;;5.25;;
45792;SDS011;31495;42.740;22.908;2022-10-16T04:19:17;7.65;;;4.82;;
45792;SDS011;31495;42.740;22.908;2022-10-16T04:20:17;10.32;;;4.38;;
45792;SDS011;31495;42.740;22.908;2022-10-16T04:21:17;8.82;;;4.20;;
45792;SDS011;31495;42.740;22.908;2022-10-16T04:22:16;8.68;;;4.55;;
45792;SDS011;31495;42.740;22.908;2022-10-16T04:23:16;7.70;;;4.70;;
45792;SDS011;31495;42.740;22.908;2022-10-16T04:24:15;13.15;;;5.18;;
45792;SDS011;31495;42.740;22.908;2022-10-16T04:25:15;10.18;;;5.40;;
45792;SDS011;31495;42.740;22.908;2022-10-16T04:26:14;8.02;;;4.97;;
45792;SDS011;31495;42.740;22.908;2022-10-16T04:27:14;9.27;;;4.90;;
45792;SDS011;31495;42.740;22.908;2022-10-16T04:28:13;10.50;;;5.97;;
45792;SDS011;31495;42.740;22.908;2022-10-16T04:29:13;12.93;;;6.88;;
45792;SDS011;31495;42.740;22.908;2022-10-16T04:30:12;16.80;;;8.30;;
45792;SDS011;31495;42.740;22.908;2022-10-16T04:31:12;20.30;;;9.05;;
45792;SDS011;31495;42.740;22.908;2022-10-16T04:32:11;12.07;;;5.72;;
45792;SDS011;31495;42.740;22.908;2022-10-16T04:33:11;20.15;;;6.78;;
45792;SDS011;31495;42.740;22.908;2022-10-16T04:34:11;20.10;;;10.02;;
45792;SDS011;31495;42.740;22.908;2022-10-16T04:35:11;17.35;;;10.63;;
45792;SDS011;31495;42.740;22.908;2022-10-16T04:36:10;20.20;;;9.98;;
45792;SDS011;31495;42.740;22.908;2022-10-16T04:37:10;20.10;;;10.18;;
45792;SDS011;31495;42.740;22.908;2022-10-16T04:38:10;25.40;;;13.10;;
45792;SDS011;31495;42.740;22.908;2022-10-16T04:39:09;33.55;;;14.48;;
45792;SDS011;31495;42.740;22.908;2022-10-16T04:40:09;27.23;;;13.60;;
45792;SDS011;31495;42.740;22.908;2022-10-16T04:41:09;20.30;;;10.75;;
45792;SDS011;31495;42.740;22.908;2022-10-16T04:42:09;9.60;;;5.78;;
45792;SDS011;31495;42.740;22.908;2022-10-16T04:43:08;10.73;;;5.85;;
45792;SDS011;31495;42.740;22.908;2022-10-16T04:44:08;19.25;;;10.02;;
45792;SDS011;31495;42.740;22.908;2022-10-16T04:45:08;14.48;;;7.75;;
45792;SDS011;31495;42.740;22.908;2022-10-16T04:46:08;14.13;;;6.53;;
45792;SDS011;31495;42.740;22.908;2022-10-16T04:47:09;16.70;;;8.98;;
45792;SDS011;31495;42.740;22.908;2022-10-16T04:48:08;17.80;;;9.48;;
45792;SDS011;31495;42.740;22.908;2022-10-16T04:49:08;26.10;;;11.68;;
45792;SDS011;31495;42.740;22.908;2022-10-16T04:50:07;22.67;;;11.40;;
45792;SDS011;31495;42.740;22.908;2022-10-16T04:51:07;26.63;;;15.13;;
45792;SDS011;31495;42.740;22.908;2022-10-16T04:52:06;38.38;;;20.27;;
45792;SDS011;31495;42.740;22.908;2022-10-16T04:53:07;30.48;;;17.05;;
45792;SDS011;31495;42.740;22.908;2022-10-16T04:54:08;31.40;;;15.57;;
45792;SDS011;31495;42.740;22.908;2022-10-16T04:55:08;28.38;;;15.35;;
45792;SDS011;31495;42.740;22.908;2022-10-16T04:56:07;26.40;;;14.65;;
45792;SDS011;31495;42.740;22.908;2022-10-16T04:57:07;28.55;;;15.38;;
45792;SDS011;31495;42.740;22.908;2022-10-16T04:58:06;31.10;;;15.95;;
45792;SDS011;31495;42.740;22.908;2022-10-16T04:59:06;32.60;;;15.00;;
45792;SDS011;31495;42.740;22.908;2022-10-16T05:00:06;25.00;;;13.43;;
45792;SDS011;31495;42.740;22.908;2022-10-16T05:01:07;27.20;;;14.00;;
45792;SDS011;31495;42.740;22.908;2022-10-16T05:02:06;21.63;;;9.52;;
45792;SDS011;31495;42.740;22.908;2022-10-16T05:03:06;25.25;;;12.88;;
45792;SDS011;31495;42.740;22.908;2022-10-16T05:04:07;31.67;;;14.60;;
45792;SDS011;31495;42.740;22.908;2022-10-16T05:05:07;22.80;;;12.65;;
45792;SDS011;31495;42.740;22.908;2022-10-16T05:06:07;19.40;;;11.35;;
45792;SDS011;31495;42.740;22.908;2022-10-16T05:07:07;22.20;;;11.32;;
45792;SDS011;31495;42.740;22.908;2022-10-16T05:08:06;25.02;;;12.20;;
45792;SDS011;31495;42.740;22.908;2022-10-16T05:09:05;22.60;;;12.38;;
45792;SDS011;31495;42.740;22.908;2022-10-16T05:10:05;26.48;;;14.82;;
45792;SDS011;31495;42.740;22.908;2022-10-16T05:11:05;28.85;;;15.00;;
45792;SDS011;31495;42.740;22.908;2022-10-16T05:12:05;27.50;;;13.38;;
45792;SDS011;31495;42.740;22.908;2022-10-16T05:13:04;24.83;;;14.60;;
45792;SDS011;31495;42.740;22.908;2022-10-16T05:14:04;32.40;;;17.65;;
45792;SDS011;31495;42.740;22.908;2022-10-16T05:15:03;30.42;;;17.92;;
45792;SDS011;31495;42.740;22.908;2022-10-16T05:16:03;27.38;;;16.40;;
45792;SDS011;31495;42.740;22.908;2022-10-16T05:17:03;27.60;;;15.00;;
45792;SDS011;31495;42.740;22.908;2022-10-16T05:18:03;26.85;;;13.90;;
45792;SDS011;31495;42.740;22.908;2022-10-16T05:19:02;27.77;;;15.85;;
45792;SDS011;31495;42.740;22.908;2022-10-16T05:20:03;31.23;;;16.10;;
45792;SDS011;31495;42.740;22.908;2022-10-16T05:21:03;26.35;;;15.95;;
45792;SDS011;31495;42.740;22.908;2022-10-16T05:22:03;28.67;;;13.73;;
45792;SDS011;31495;42.740;22.908;2022-10-16T05:23:02;27.25;;;13.48;;
45792;SDS011;31495;42.740;22.908;2022-10-16T05:24:01;25.75;;;13.80;;
45792;SDS011;31495;42.740;22.908;2022-10-16T05:25:01;30.77;;;19.15;;
45792;SDS011;31495;42.740;22.908;2022-10-16T05:26:00;36.05;;;21.67;;
45792;SDS011;31495;42.740;22.908;2022-10-16T05:27:00;45.20;;;24.13;;
45792;SDS011;31495;42.740;22.908;2022-10-16T05:27:59;44.90;;;22.55;;
45792;SDS011;31495;42.740;22.908;2022-10-16T05:28:59;28.67;;;16.52;;
45792;SDS011;31495;42.740;22.908;2022-10-16T05:29:58;28.40;;;15.38;;
45792;SDS011;31495;42.740;22.908;2022-10-16T05:30:58;27.98;;;17.25;;
45792;SDS011;31495;42.740;22.908;2022-10-16T05:31:58;23.00;;;14.55;;
45792;SDS011;31495;42.740;22.908;2022-10-16T05:32:58;32.20;;;17.08;;
45792;SDS011;31495;42.740;22.908;2022-10-16T05:34:00;35.80;;;18.42;;
45792;SDS011;31495;42.740;22.908;2022-10-16T05:35:01;34.70;;;16.90;;
45792;SDS011;31495;42.740;22.908;2022-10-16T05:36:01;27.40;;;16.42;;
45792;SDS011;31495;42.740;22.908;2022-10-16T05:37:06;25.48;;;14.43;;
45792;SDS011;31495;42.740;22.908;2022-10-16T05:38:06;24.13;;;13.48;;
45792;SDS011;31495;42.740;22.908;2022-10-16T05:39:05;27.17;;;16.52;;
45792;SDS011;31495;42.740;22.908;2022-10-16T05:40:05;31.80;;;16.30;;
45792;SDS011;31495;42.740;22.908;2022-10-16T05:41:04;24.45;;;13.02;;
45792;SDS011;31495;42.740;22.908;2022-10-16T05:42:04;23.27;;;12.10;;
45792;SDS011;31495;42.740;22.908;2022-10-16T05:43:04;22.92;;;11.13;;
45792;SDS011;31495;42.740;22.908;2022-10-16T05:44:04;30.20;;;15.23;;
45792;SDS011;31495;42.740;22.908;2022-10-16T05:45:05;27.30;;;14.90;;
45792;SDS011;31495;42.740;22.908;2022-10-16T05:47:05;19.35;;;11.35;;
45792;SDS011;31495;42.740;22.908;2022-10-16T05:48:05;23.23;;;12.95;;
45792;SDS011;31495;42.740;22.908;2022-10-16T05:49:04;25.88;;;15.52;;
45792;SDS011;31495;42.740;22.908;2022-10-16T05:50:03;63.30;;;30.65;;
45792;SDS011;31495;42.740;22.908;2022-10-16T05:51:04;54.85;;;31.65;;
45792;SDS011;31495;42.740;22.908;2022-10-16T05:52:08;49.33;;;28.48;;
45792;SDS011;31495;42.740;22.908;2022-10-16T05:53:08;48.08;;;27.67;;
45792;SDS011;31495;42.740;22.908;2022-10-16T05:54:08;42.28;;;24.30;;
45792;SDS011;31495;42.740;22.908;2022-10-16T05:55:08;40.33;;;22.95;;
45792;SDS011;31495;42.740;22.908;2022-10-16T05:56:09;36.55;;;21.42;;
45792;SDS011;31495;42.740;22.908;2022-10-16T05:57:09;34.45;;;21.95;;
45792;SDS011;31495;42.740;22.908;2022-10-16T05:58:09;29.00;;;19.05;;
45792;SDS011;31495;42.740;22.908;2022-10-16T05:59:08;28.48;;;18.30;;
45792;SDS011;31495;42.740;22.908;2022-10-16T06:00:08;27.80;;;17.67;;
45792;SDS011;31495;42.740;22.908;2022-10-16T06:01:15;30.67;;;17.98;;
45792;SDS011;31495;42.740;22.908;2022-10-16T06:02:16;35.92;;;18.67;;
45792;SDS011;31495;42.740;22.908;2022-10-16T06:03:16;29.88;;;18.85;;
45792;SDS011;31495;42.740;22.908;2022-10-16T06:04:15;35.15;;;18.55;;
45792;SDS011;31495;42.740;22.908;2022-10-16T06:05:15;32.72;;;19.20;;
45792;SDS011;31495;42.740;22.908;2022-10-16T06:06:15;31.58;;;19.15;;
45792;SDS011;31495;42.740;22.908;2022-10-16T06:07:19;37.40;;;18.08;;
45792;SDS011;31495;42.740;22.908;2022-10-16T06:08:20;32.17;;;18.38;;
45792;SDS011;31495;42.740;22.908;2022-10-16T06:09:20;27.88;;;14.90;;
45792;SDS011;31495;42.740;22.908;2022-10-16T06:10:20;21.50;;;12.95;;
45792;SDS011;31495;42.740;22.908;2022-10-16T06:11:22;21.95;;;12.52;;
45792;SDS011;31495;42.740;22.908;2022-10-16T06:12:23;21.58;;;11.85;;